SWA1121 KLAS-KLAX
Flight info
| Callsign | SWA1121 |
|---|---|
| Flight time | 0h 40m |
| Altitude | 28000 |
| Route | RADYR2 BLAQQ SHTNR ANJLL4 |
| Aircraft | B737/M-SDE2E3FGHIRWXY/LB1 |
Departure
| Time | 2026-05-06 23:00 |
|---|---|
| Airport | Harry Reid International Airport (KLAS) |
Arrival
| Time | 2026-05-06 23:40 |
|---|---|
| Airport | Los Angeles International Airport (KLAX) |
| Time | Latitude | Longitude | Altitude | Speed | Heading |
|---|---|---|---|---|---|
| 2026-05-06 22:38 | 36.07976 | -115.13596 | 2091 ft | 5 kts | 42° |
| 2026-05-06 22:38 | 36.07994 | -115.13576 | 2091 ft | 0 kts | 43° |
| 2026-05-06 22:42 | 36.07993 | -115.13577 | 2091 ft | 2 kts | 43° |
| 2026-05-06 22:43 | 36.07975 | -115.13599 | 2091 ft | 4 kts | 49° |
| 2026-05-06 22:43 | 36.07959 | -115.13625 | 2091 ft | 4 kts | 63° |
| 2026-05-06 22:43 | 36.07952 | -115.13655 | 2091 ft | 4 kts | 104° |
| 2026-05-06 22:43 | 36.07958 | -115.13669 | 2091 ft | 1 kts | 135° |
| 2026-05-06 22:44 | 36.07959 | -115.13671 | 2091 ft | 0 kts | 135° |
| 2026-05-06 22:48 | 36.07946 | -115.13656 | 2091 ft | 5 kts | 135° |
| 2026-05-06 22:49 | 36.07917 | -115.13619 | 2091 ft | 8 kts | 135° |
| 2026-05-06 22:49 | 36.07872 | -115.13565 | 2091 ft | 10 kts | 135° |
| 2026-05-06 22:49 | 36.07831 | -115.13496 | 2090 ft | 10 kts | 105° |
| 2026-05-06 22:49 | 36.07828 | -115.13412 | 2089 ft | 10 kts | 90° |
| 2026-05-06 22:50 | 36.07828 | -115.13326 | 2088 ft | 10 kts | 90° |
| 2026-05-06 22:50 | 36.07828 | -115.13232 | 2085 ft | 12 kts | 90° |
| 2026-05-06 22:50 | 36.07829 | -115.13121 | 2082 ft | 14 kts | 90° |
| 2026-05-06 22:50 | 36.07829 | -115.12984 | 2076 ft | 18 kts | 90° |
| 2026-05-06 22:51 | 36.07828 | -115.12822 | 2069 ft | 21 kts | 90° |
| 2026-05-06 22:51 | 36.07829 | -115.12634 | 2062 ft | 23 kts | 90° |
| 2026-05-06 22:51 | 36.07829 | -115.12447 | 2056 ft | 19 kts | 90° |
| 2026-05-06 22:51 | 36.07828 | -115.12291 | 2053 ft | 15 kts | 96° |
| 2026-05-06 22:52 | 36.07771 | -115.12179 | 2049 ft | 15 kts | 129° |
| 2026-05-06 22:52 | 36.07742 | -115.12138 | 2048 ft | 2 kts | 135° |
| 2026-05-06 22:52 | 36.07719 | -115.12126 | 2049 ft | 6 kts | 171° |
| 2026-05-06 22:52 | 36.07669 | -115.12125 | 2050 ft | 8 kts | 187° |
| 2026-05-06 22:53 | 36.07642 | -115.12174 | 2048 ft | 7 kts | 269° |
| 2026-05-06 22:53 | 36.07643 | -115.12190 | 2048 ft | 0 kts | 270° |
| 2026-05-06 22:59 | 36.07643 | -115.12193 | 2048 ft | 8 kts | 270° |
| 2026-05-06 22:59 | 36.07641 | -115.12788 | 2069 ft | 126 kts | 270° |
| 2026-05-06 22:59 | 36.07634 | -115.14273 | 2183 ft | 214 kts | 269° |
| 2026-05-06 23:00 | 36.07646 | -115.16247 | 3198 ft | 236 kts | 273° |
| 2026-05-06 23:00 | 36.07727 | -115.18263 | 4693 ft | 233 kts | 276° |
| 2026-05-06 23:00 | 36.07859 | -115.20303 | 5722 ft | 244 kts | 277° |
| 2026-05-06 23:00 | 36.07960 | -115.22406 | 6686 ft | 253 kts | 268° |
| 2026-05-06 23:01 | 36.07653 | -115.24570 | 7670 ft | 263 kts | 253° |
| 2026-05-06 23:01 | 36.06592 | -115.26365 | 7982 ft | 268 kts | 215° |
| 2026-05-06 23:01 | 36.04745 | -115.27240 | 7987 ft | 295 kts | 191° |
| 2026-05-06 23:01 | 36.02750 | -115.27835 | 7980 ft | 296 kts | 199° |
| 2026-05-06 23:02 | 36.00798 | -115.28664 | 8017 ft | 297 kts | 201° |
| 2026-05-06 23:02 | 35.98838 | -115.29523 | 8022 ft | 305 kts | 198° |
| 2026-05-06 23:02 | 35.96690 | -115.30159 | 8570 ft | 325 kts | 192° |
| 2026-05-06 23:02 | 35.94480 | -115.30686 | 9749 ft | 331 kts | 192° |
| 2026-05-06 23:03 | 35.92187 | -115.31210 | 10735 ft | 339 kts | 191° |
| 2026-05-06 23:03 | 35.89847 | -115.31750 | 11802 ft | 344 kts | 191° |
| 2026-05-06 23:03 | 35.87482 | -115.32306 | 12903 ft | 349 kts | 190° |
| 2026-05-06 23:03 | 35.85077 | -115.32882 | 13938 ft | 356 kts | 189° |
| 2026-05-06 23:04 | 35.82610 | -115.33480 | 14822 ft | 367 kts | 189° |
| 2026-05-06 23:04 | 35.80065 | -115.34100 | 15684 ft | 377 kts | 189° |
| 2026-05-06 23:04 | 35.77469 | -115.34733 | 16666 ft | 384 kts | 189° |
| 2026-05-06 23:04 | 35.74836 | -115.35378 | 17701 ft | 389 kts | 189° |
| 2026-05-06 23:05 | 35.72158 | -115.36034 | 18572 ft | 396 kts | 189° |
| 2026-05-06 23:05 | 35.69487 | -115.36688 | 18903 ft | 399 kts | 189° |
| 2026-05-06 23:05 | 35.66756 | -115.37356 | 19040 ft | 402 kts | 189° |
| 2026-05-06 23:05 | 35.64020 | -115.38025 | 19037 ft | 400 kts | 189° |
| 2026-05-06 23:06 | 35.61291 | -115.38677 | 19049 ft | 399 kts | 187° |
| 2026-05-06 23:06 | 35.58508 | -115.38777 | 19468 ft | 403 kts | 174° |
| 2026-05-06 23:06 | 35.55685 | -115.38520 | 20208 ft | 412 kts | 173° |
| 2026-05-06 23:06 | 35.52795 | -115.38241 | 20896 ft | 421 kts | 173° |
| 2026-05-06 23:07 | 35.49852 | -115.37999 | 21690 ft | 427 kts | 174° |
| 2026-05-06 23:07 | 35.46872 | -115.37784 | 22544 ft | 431 kts | 175° |
| 2026-05-06 23:07 | 35.43911 | -115.38020 | 23512 ft | 435 kts | 191° |
| 2026-05-06 23:07 | 35.41095 | -115.39328 | 24483 ft | 433 kts | 206° |
| 2026-05-06 23:08 | 35.38438 | -115.41029 | 25472 ft | 430 kts | 208° |
| 2026-05-06 23:08 | 35.35809 | -115.42779 | 26365 ft | 430 kts | 208° |
| 2026-05-06 23:08 | 35.33179 | -115.44529 | 27208 ft | 431 kts | 207° |
| 2026-05-06 23:08 | 35.30522 | -115.46275 | 27785 ft | 435 kts | 207° |
| 2026-05-06 23:09 | 35.27839 | -115.48012 | 28046 ft | 437 kts | 207° |
| 2026-05-06 23:09 | 35.22487 | -115.51437 | 28033 ft | 430 kts | 206° |
| 2026-05-06 23:10 | 35.17209 | -115.54799 | 28044 ft | 432 kts | 206° |
| 2026-05-06 23:10 | 35.11956 | -115.58394 | 28019 ft | 435 kts | 219° |
| 2026-05-06 23:11 | 35.07756 | -115.63662 | 28033 ft | 433 kts | 227° |
| 2026-05-06 23:11 | 35.03656 | -115.69034 | 28016 ft | 432 kts | 227° |
| 2026-05-06 23:12 | 34.99526 | -115.74354 | 28017 ft | 431 kts | 227° |
| 2026-05-06 23:12 | 34.95412 | -115.79596 | 28011 ft | 431 kts | 227° |
| 2026-05-06 23:13 | 34.91255 | -115.84876 | 28027 ft | 438 kts | 227° |
| 2026-05-06 23:13 | 34.89103 | -115.87607 | 28029 ft | 456 kts | 227° |
| 2026-05-06 23:13 | 34.86872 | -115.90437 | 28013 ft | 469 kts | 227° |
| 2026-05-06 23:13 | 34.84626 | -115.93284 | 27985 ft | 462 kts | 226° |
| 2026-05-06 23:14 | 34.82412 | -115.96087 | 27975 ft | 456 kts | 227° |
| 2026-05-06 23:14 | 34.78023 | -116.01638 | 27992 ft | 461 kts | 226° |
| 2026-05-06 23:14 | 34.75798 | -116.04455 | 27994 ft | 461 kts | 227° |
| 2026-05-06 23:15 | 34.73580 | -116.07277 | 27988 ft | 462 kts | 227° |
| 2026-05-06 23:15 | 34.71364 | -116.10103 | 27988 ft | 461 kts | 227° |
| 2026-05-06 23:15 | 34.69152 | -116.12922 | 27997 ft | 461 kts | 227° |
| 2026-05-06 23:15 | 34.66938 | -116.15741 | 27987 ft | 461 kts | 227° |
| 2026-05-06 23:16 | 34.64733 | -116.18545 | 27865 ft | 455 kts | 227° |
| 2026-05-06 23:16 | 34.62570 | -116.21291 | 27571 ft | 443 kts | 227° |
| 2026-05-06 23:16 | 34.60497 | -116.23921 | 27300 ft | 431 kts | 227° |
| 2026-05-06 23:16 | 34.58453 | -116.26511 | 27036 ft | 419 kts | 227° |
| 2026-05-06 23:17 | 34.56460 | -116.29037 | 26780 ft | 410 kts | 227° |
| 2026-05-06 23:17 | 34.54504 | -116.31513 | 26527 ft | 404 kts | 227° |
| 2026-05-06 23:17 | 34.52566 | -116.33965 | 26267 ft | 401 kts | 227° |
| 2026-05-06 23:17 | 34.50645 | -116.36394 | 26035 ft | 397 kts | 227° |
| 2026-05-06 23:18 | 34.48741 | -116.38802 | 25789 ft | 394 kts | 227° |
| 2026-05-06 23:18 | 34.46849 | -116.41191 | 25568 ft | 392 kts | 227° |
| 2026-05-06 23:18 | 34.44966 | -116.43567 | 25329 ft | 389 kts | 227° |
| 2026-05-06 23:18 | 34.43118 | -116.45897 | 25095 ft | 389 kts | 227° |
| 2026-05-06 23:19 | 34.41344 | -116.48369 | 24845 ft | 390 kts | 240° |
| 2026-05-06 23:19 | 34.40080 | -116.51257 | 24649 ft | 388 kts | 246° |
| 2026-05-06 23:19 | 34.38918 | -116.54200 | 24417 ft | 387 kts | 247° |
| 2026-05-06 23:19 | 34.37763 | -116.57135 | 24181 ft | 386 kts | 247° |
| 2026-05-06 23:20 | 34.36596 | -116.60048 | 24051 ft | 385 kts | 246° |
| 2026-05-06 23:20 | 34.35409 | -116.62954 | 24021 ft | 385 kts | 246° |
| 2026-05-06 23:20 | 34.34215 | -116.65848 | 24019 ft | 384 kts | 246° |
| 2026-05-06 23:20 | 34.33023 | -116.68737 | 24014 ft | 384 kts | 246° |
| 2026-05-06 23:21 | 34.31848 | -116.71638 | 24028 ft | 384 kts | 247° |
| 2026-05-06 23:21 | 34.30697 | -116.74508 | 24032 ft | 385 kts | 247° |
| 2026-05-06 23:21 | 34.29531 | -116.77416 | 24028 ft | 385 kts | 247° |
| 2026-05-06 23:21 | 34.28364 | -116.80325 | 24030 ft | 384 kts | 247° |
| 2026-05-06 23:22 | 34.27200 | -116.83219 | 24018 ft | 378 kts | 247° |
| 2026-05-06 23:22 | 34.26069 | -116.86021 | 24010 ft | 363 kts | 247° |
| 2026-05-06 23:22 | 34.24985 | -116.88704 | 24006 ft | 348 kts | 247° |
| 2026-05-06 23:22 | 34.23936 | -116.91302 | 23693 ft | 344 kts | 247° |
| 2026-05-06 23:23 | 34.22864 | -116.93968 | 22650 ft | 363 kts | 247° |
| 2026-05-06 23:23 | 34.21754 | -116.96718 | 21864 ft | 372 kts | 247° |
| 2026-05-06 23:23 | 34.20674 | -116.99551 | 21368 ft | 369 kts | 252° |
| 2026-05-06 23:23 | 34.19853 | -117.02458 | 20989 ft | 363 kts | 256° |
| 2026-05-06 23:24 | 34.19131 | -117.05357 | 20607 ft | 358 kts | 257° |
| 2026-05-06 23:24 | 34.18408 | -117.08224 | 20133 ft | 357 kts | 256° |
| 2026-05-06 23:24 | 34.17658 | -117.11076 | 19736 ft | 354 kts | 256° |
| 2026-05-06 23:24 | 34.16899 | -117.13888 | 19308 ft | 351 kts | 255° |
| 2026-05-06 23:25 | 34.16133 | -117.16696 | 18838 ft | 351 kts | 255° |
| 2026-05-06 23:25 | 34.15369 | -117.19477 | 18472 ft | 347 kts | 255° |
| 2026-05-06 23:25 | 34.14610 | -117.22231 | 18037 ft | 344 kts | 255° |
| 2026-05-06 23:25 | 34.13857 | -117.24958 | 17552 ft | 342 kts | 255° |
| 2026-05-06 23:26 | 34.13108 | -117.27676 | 17089 ft | 340 kts | 255° |
| 2026-05-06 23:26 | 34.12366 | -117.30370 | 16640 ft | 338 kts | 254° |
| 2026-05-06 23:26 | 34.11626 | -117.33050 | 16206 ft | 335 kts | 254° |
| 2026-05-06 23:26 | 34.10902 | -117.35670 | 15784 ft | 332 kts | 254° |
| 2026-05-06 23:27 | 34.10187 | -117.38313 | 15348 ft | 330 kts | 256° |
| 2026-05-06 23:27 | 34.09526 | -117.40953 | 14937 ft | 328 kts | 256° |
| 2026-05-06 23:27 | 34.09066 | -117.43585 | 14869 ft | 312 kts | 266° |
| 2026-05-06 23:27 | 34.08740 | -117.46175 | 14817 ft | 319 kts | 261° |
| 2026-05-06 23:28 | 34.08024 | -117.48807 | 14350 ft | 336 kts | 248° |
| 2026-05-06 23:28 | 34.06955 | -117.51289 | 14301 ft | 329 kts | 239° |
| 2026-05-06 23:28 | 34.05893 | -117.53672 | 14311 ft | 320 kts | 256° |
| 2026-05-06 23:28 | 34.05582 | -117.56270 | 14057 ft | 316 kts | 264° |
| 2026-05-06 23:29 | 34.05079 | -117.58870 | 13509 ft | 321 kts | 256° |
| 2026-05-06 23:29 | 34.04409 | -117.61446 | 13027 ft | 321 kts | 254° |
| 2026-05-06 23:29 | 34.03727 | -117.63990 | 12640 ft | 317 kts | 255° |
| 2026-05-06 23:29 | 34.03064 | -117.66514 | 12234 ft | 314 kts | 255° |
| 2026-05-06 23:30 | 34.02415 | -117.69018 | 11818 ft | 312 kts | 255° |
| 2026-05-06 23:30 | 34.01923 | -117.71538 | 11407 ft | 307 kts | 265° |
| 2026-05-06 23:30 | 34.01691 | -117.74075 | 11043 ft | 303 kts | 268° |
| 2026-05-06 23:30 | 34.01493 | -117.76549 | 10756 ft | 298 kts | 268° |
| 2026-05-06 23:31 | 34.01290 | -117.79013 | 10408 ft | 294 kts | 267° |
| 2026-05-06 23:31 | 34.01067 | -117.81461 | 10025 ft | 293 kts | 267° |
| 2026-05-06 23:31 | 34.00836 | -117.83882 | 9686 ft | 289 kts | 266° |
| 2026-05-06 23:31 | 34.00603 | -117.86287 | 9245 ft | 289 kts | 266° |
| 2026-05-06 23:32 | 34.00369 | -117.88680 | 8873 ft | 286 kts | 266° |
| 2026-05-06 23:32 | 34.00145 | -117.91058 | 8446 ft | 285 kts | 267° |
| 2026-05-06 23:32 | 33.99947 | -117.93426 | 8079 ft | 283 kts | 268° |
| 2026-05-06 23:32 | 33.99739 | -117.95778 | 7673 ft | 283 kts | 267° |
| 2026-05-06 23:33 | 33.99517 | -117.98110 | 7229 ft | 277 kts | 266° |
| 2026-05-06 23:33 | 33.99292 | -118.00381 | 6697 ft | 279 kts | 266° |
| 2026-05-06 23:33 | 33.99061 | -118.02669 | 6454 ft | 272 kts | 265° |
| 2026-05-06 23:33 | 33.98829 | -118.04938 | 6072 ft | 272 kts | 266° |
| 2026-05-06 23:34 | 33.98599 | -118.07191 | 5727 ft | 269 kts | 264° |
| 2026-05-06 23:34 | 33.98372 | -118.09404 | 5536 ft | 260 kts | 265° |
| 2026-05-06 23:34 | 33.98153 | -118.11521 | 5444 ft | 249 kts | 264° |
| 2026-05-06 23:34 | 33.97946 | -118.13542 | 5344 ft | 238 kts | 264° |
| 2026-05-06 23:35 | 33.97746 | -118.15483 | 5263 ft | 228 kts | 266° |
| 2026-05-06 23:35 | 33.97573 | -118.17333 | 5175 ft | 217 kts | 265° |
| 2026-05-06 23:35 | 33.97403 | -118.19061 | 5080 ft | 202 kts | 265° |
| 2026-05-06 23:35 | 33.97235 | -118.20671 | 4931 ft | 186 kts | 266° |
| 2026-05-06 23:36 | 33.97075 | -118.22221 | 4440 ft | 191 kts | 264° |
| 2026-05-06 23:36 | 33.96908 | -118.23836 | 3830 ft | 196 kts | 264° |
| 2026-05-06 23:36 | 33.96735 | -118.25485 | 3203 ft | 200 kts | 265° |
| 2026-05-06 23:36 | 33.96562 | -118.27153 | 2586 ft | 199 kts | 262° |
| 2026-05-06 23:37 | 33.96398 | -118.28723 | 2377 ft | 178 kts | 262° |
| 2026-05-06 23:37 | 33.96248 | -118.30170 | 2148 ft | 173 kts | 262° |
| 2026-05-06 23:37 | 33.96102 | -118.31573 | 1544 ft | 164 kts | 261° |
| 2026-05-06 23:37 | 33.95974 | -118.32822 | 1321 ft | 134 kts | 261° |
| 2026-05-06 23:38 | 33.95865 | -118.33867 | 1129 ft | 123 kts | 262° |
| 2026-05-06 23:38 | 33.95761 | -118.34860 | 1010 ft | 118 kts | 265° |
| 2026-05-06 23:38 | 33.95660 | -118.35852 | 852 ft | 118 kts | 264° |
| 2026-05-06 23:38 | 33.95556 | -118.36837 | 690 ft | 120 kts | 262° |
| 2026-05-06 23:39 | 33.95450 | -118.37794 | 537 ft | 106 kts | 263° |
| 2026-05-06 23:39 | 33.95358 | -118.38651 | 361 ft | 108 kts | 260° |
| 2026-05-06 23:39 | 33.95275 | -118.39554 | 257 ft | 111 kts | 262° |
| 2026-05-06 23:39 | 33.95182 | -118.40475 | 123 ft | 114 kts | 262° |
| 2026-05-06 23:40 | 33.95093 | -118.41321 | 92 ft | 82 kts | 263° |
| 2026-05-06 23:40 | 33.95045 | -118.41786 | 94 ft | 46 kts | 263° |
| 2026-05-06 23:40 | 33.94985 | -118.42125 | 94 ft | 37 kts | 237° |
| 2026-05-06 23:40 | 33.94878 | -118.42259 | 96 ft | 2 kts | 210° |
| 2026-05-06 23:41 | 33.94862 | -118.42268 | 97 ft | 8 kts | 200° |
| 2026-05-06 23:41 | 33.94752 | -118.42279 | 95 ft | 23 kts | 175° |
| 2026-05-06 23:42 | 33.94608 | -118.42207 | 92 ft | 24 kts | 96° |
| 2026-05-06 23:42 | 33.94626 | -118.42015 | 92 ft | 23 kts | 84° |
| 2026-05-06 23:42 | 33.94635 | -118.41828 | 92 ft | 22 kts | 82° |
| 2026-05-06 23:42 | 33.94653 | -118.41646 | 92 ft | 22 kts | 83° |
| 2026-05-06 23:43 | 33.94672 | -118.41470 | 92 ft | 21 kts | 83° |
| 2026-05-06 23:43 | 33.94587 | -118.41369 | 92 ft | 20 kts | 173° |
| 2026-05-06 23:43 | 33.94450 | -118.41346 | 93 ft | 20 kts | 172° |
| 2026-05-06 23:43 | 33.94363 | -118.41336 | 92 ft | 12 kts | 176° |
| 2026-05-06 23:44 | 33.94301 | -118.41375 | 92 ft | 11 kts | 258° |
| 2026-05-06 23:44 | 33.94300 | -118.41387 | 92 ft | 0 kts | 265° |
| 2026-05-06 23:44 | 33.94371 | -118.41441 | 93 ft | 0 kts | 263° |